Eden Prairie, MN (55347)

7:29 PM CST on December 27, 2014 (GMT -0600)
Flying Cloud Airport | Change Station
CLOSE
Current Station
Personal Weather Station
Location: Eden Prairie, MN
Elevation: 902 ft
Nearby Weather Stations

Elev 902 ft 44.83 °N, 93.46 °W | Updated 2 seconds ago

Clear
Clear
11.5 °F
Feels Like 2 °F
N
6.3
Wind Variable Wind from SW
Gusts 8.1 mph

Today
High -- | Low -- °F
--% Chance of Precip.
Yesterday
High -- | Low -- °F
Precip. -- in
7:50 AM 4:39 PM
Waxing Crescent, 42% visible
Pressure 30.17 in
Visibility 10.0 miles
Clouds Clear
Windchill 2 °F
Dew Point 6 °F
Humidity 79%
Rainfall 0.00 in
Snow Depth Not available.
UV 0 out of 12
Pollen .10 out of 12
Air Quality Not available.
Flu Activity Not available.
METAR KFCM 280053Z 25005KT 10SM CLR M11/M15 A3012 RMK AO2 SLP215 T11111150

More Conditions Fewer Conditions

Pressure 30.17 in
Visibility 10.0 miles
Clouds Clear
Windchill 2 °F
Dew Point 6 °F
Humidity 79%
Rainfall 0.00 in
Snow Depth Not available.
UV 0 out of 12
Pollen .10 out of 12
Air Quality Not available.
Flu Activity Not available.
METAR KFCM 280053Z 25005KT 10SM CLR M11/M15 A3012 RMK AO2 SLP215 T11111150

More Conditions Fewer Conditions

10-Day Weather Forecast

Almanac

Astronomy

Dec. 27, 2014 Rise Set
Actual Time
Civil Twilight
Nautical Twilight
Astronomical Twilight
Moon
Length of Visible Light
Length of Day
Tomorrow will be .
, % of the Moon is Illuminated

Today's Extremes

State Highs State Lows

Community

WunderPhotos

Upload Photos

1,781,120 photos uploaded!

WunderBlogs® & News

Nearby

Air Quality

  Air Quality AQ Index Pollutant
Not available.

Snow Depth

Station Depth Elevation

Earthquake Activity

City Distance Mag. Time & Date
Minimum magnitude displayed is 2.5.

Coastal Water Temperatures

Place Temperature

Nearby Weather Stations